Time;durP1;ratioP1;P1;durP2;ratioP2;P2;SDS_P1;SDS_P2;PMS_P1;PMS_P2;Temp;Humidity;BMP_temperature;BMP_pressure;BME280_temperature;BME280_humidity;BME280_pressure;Samples;Min_cycle;Max_cycle;Signal;HPM_P1;HPM_P2
2022/12/04 00:00:12;;;;;;;25.83;14.82;;;;;;;0.72;100.00;102291.56;5010007;28;20133;-79
2022/12/04 00:02:38;;;;;;;38.22;17.83;;;;;;;0.54;100.00;102258.50;5006824;28;20033;-75
2022/12/04 00:05:05;;;;;;;38.15;17.02;;;;;;;-0.67;100.00;102062.41;5009232;28;20053;-76
2022/12/04 00:07:30;;;;;;;37.08;16.27;;;;;;;-0.28;100.00;102104.75;5008223;28;20046;-76
2022/12/04 00:09:56;;;;;;;43.67;19.13;;;;;;;-0.01;100.00;102154.78;5000505;28;20771;-76
2022/12/04 00:12:21;;;;;;;34.67;15.35;;;;;;;0.22;100.00;102255.31;4999697;28;20061;-76
2022/12/04 00:14:48;;;;;;;36.20;16.77;;;;;;;0.72;100.00;102278.63;5007880;28;20054;-78
2022/12/04 00:17:13;;;;;;;34.97;16.25;;;;;;;-0.13;100.00;102147.88;5009387;28;20557;-77
2022/12/04 00:19:39;;;;;;;28.02;14.20;;;;;;;0.52;100.00;102277.25;5004503;28;20053;-79
2022/12/04 00:22:04;;;;;;;28.90;14.45;;;;;;;0.29;100.00;102221.41;4999518;28;20050;-80
2022/12/04 00:24:31;;;;;;;28.17;15.25;;;;;;;0.48;100.00;102289.03;5005917;28;20137;-77
2022/12/04 00:26:56;;;;;;;32.30;14.82;;;;;;;-0.10;100.00;102120.59;5003874;28;20050;-79
2022/12/04 00:29:22;;;;;;;23.88;13.63;;;;;;;0.59;100.00;102298.44;5004858;28;20466;-76
2022/12/04 00:31:47;;;;;;;30.23;14.98;;;;;;;-0.14;100.00;102162.47;5001000;28;20741;-79
2022/12/04 00:34:13;;;;;;;22.52;11.20;;;;;;;0.47;100.00;102276.00;4998326;28;20485;-76
2022/12/04 00:36:38;;;;;;;18.98;11.75;;;;;;;1.02;100.00;102296.25;5004124;28;20497;-79
2022/12/04 00:39:04;;;;;;;26.95;13.52;;;;;;;1.17;100.00;102317.13;5006542;28;20444;-78
2022/12/04 00:41:31;;;;;;;22.42;13.15;;;;;;;0.48;100.00;102193.47;5002808;28;20188;-77
2022/12/04 00:43:57;;;;;;;19.83;12.13;;;;;;;1.19;100.00;102294.81;4999919;28;20041;-77
2022/12/04 00:46:23;;;;;;;21.08;10.23;;;;;;;0.64;100.00;102182.53;5002489;28;20133;-76
2022/12/04 00:48:50;;;;;;;18.42;10.98;;;;;;;1.32;100.00;102287.94;5000821;28;20050;-77
2022/12/04 00:51:18;;;;;;;21.73;10.65;;;;;;;1.23;100.00;102270.97;5005970;28;20069;-76
2022/12/04 00:53:44;;;;;;;17.20;9.80;;;;;;;0.63;100.00;102171.31;5000878;28;20556;-76
2022/12/04 00:56:12;;;;;;;18.02;11.07;;;;;;;1.15;100.00;102273.88;5005965;28;20046;-77
2022/12/04 00:58:38;;;;;;;19.70;9.32;;;;;;;0.59;100.00;102165.81;5000585;28;20053;-75
2022/12/04 01:01:13;;;;;;;17.60;9.75;;;;;;;1.52;100.00;102299.59;5020450;28;20569;-77
2022/12/04 01:03:39;;;;;;;19.58;9.02;;;;;;;1.40;100.00;102274.69;5007772;28;20084;-77
2022/12/04 01:06:06;;;;;;;15.50;8.55;;;;;;;0.69;100.00;102176.00;5001653;28;20516;-77
2022/12/04 01:08:32;;;;;;;17.33;9.75;;;;;;;1.32;100.00;102255.19;5006040;28;20033;-77
2022/12/04 01:10:58;;;;;;;16.95;9.55;;;;;;;0.46;100.00;102114.13;5008383;28;20037;-76
2022/12/04 01:13:24;;;;;;;18.63;9.27;;;;;;;0.37;100.00;102143.66;5006059;28;20604;-76
2022/12/04 01:15:50;;;;;;;16.30;8.63;;;;;;;1.35;100.00;102301.94;5003294;28;20067;-77
2022/12/04 01:18:16;;;;;;;19.98;9.00;;;;;;;1.53;100.00;102296.25;4999389;28;20589;-76
2022/12/04 01:20:47;;;;;;;15.68;9.68;;;;;;;0.57;100.00;102173.47;5002288;28;20518;-76
2022/12/04 01:23:13;;;;;;;21.83;9.48;;;;;;;0.46;100.00;102196.75;5000579;28;20033;-78
2022/12/04 01:25:38;;;;;;;14.48;6.07;;;;;;;-0.04;100.00;102139.09;4998619;28;20095;-77
2022/12/04 01:28:04;;;;;;;17.20;8.82;;;;;;;0.54;100.00;102175.84;5000644;28;20119;-77
2022/12/04 01:30:29;;;;;;;14.15;9.15;;;;;;;0.96;100.00;102295.88;5000496;28;20053;-78
2022/12/04 01:32:55;;;;;;;16.02;9.55;;;;;;;1.08;100.00;102257.03;5002366;28;20053;-77
2022/12/04 01:35:20;;;;;;;13.93;8.73;;;;;;;1.15;100.00;102295.44;4999128;28;20064;-76
2022/12/04 01:37:45;;;;;;;16.15;10.20;;;;;;;1.32;100.00;102278.47;5002290;28;20080;-76
2022/12/04 01:40:13;;;;;;;18.58;9.80;;;;;;;1.57;100.00;102300.78;5001066;28;20486;-77
2022/12/04 01:42:39;;;;;;;16.05;9.05;;;;;;;1.53;100.00;102299.72;5000318;28;20061;-78
2022/12/04 01:45:44;;;;;;;13.68;7.75;;;;;;;1.19;100.00;102278.44;5000398;28;20038;-78
2022/12/04 01:48:13;;;;;;;14.00;7.45;;;;;;;1.52;100.00;102302.19;4982275;28;20098;-77
2022/12/04 01:50:41;;;;;;;14.85;9.07;;;;;;;1.56;100.00;102302.50;4986088;28;20060;-77
2022/12/04 01:53:07;;;;;;;12.15;7.85;;;;;;;1.02;100.00;102295.38;4989069;28;20053;-76
2022/12/04 01:55:32;;;;;;;16.65;8.73;;;;;;;1.24;100.00;102293.47;5003397;28;20056;-76
2022/12/04 01:58:01;;;;;;;21.33;9.68;;;;;;;-0.02;100.00;102046.34;5000031;28;20092;-75
2022/12/04 02:00:27;;;;;;;13.80;6.80;;;;;;;0.75;100.00;102158.34;5004634;28;20564;-76
2022/12/04 02:02:53;;;;;;;19.10;7.57;;;;;;;1.02;100.00;102251.44;4999865;28;20054;-75
2022/12/04 02:05:20;;;;;;;18.42;9.77;;;;;;;1.08;100.00;102277.72;5005824;28;20049;-78
2022/12/04 02:07:48;;;;;;;13.68;8.52;;;;;;;1.02;100.00;102266.94;5003279;28;20056;-75
2022/12/04 02:10:16;;;;;;;16.67;9.20;;;;;;;0.51;100.00;102121.38;5005391;28;20050;-76
2022/12/04 02:12:58;;;;;;;17.83;8.23;;;;;;;-0.13;100.00;102075.66;5005430;28;20046;-76
2022/12/04 02:15:35;;;;;;;14.02;8.15;;;;;;;1.31;100.00;102284.44;4999419;28;20080;-76
2022/12/04 02:18:27;;;;;;;18.30;10.23;;;;;;;1.50;100.00;102284.00;5000824;28;20069;-76
2022/12/04 02:21:05;;;;;;;16.75;8.57;;;;;;;1.64;100.00;102290.09;5005114;28;20799;-76
2022/12/04 02:23:40;;;;;;;19.67;8.02;;;;;;;1.56;100.00;102286.09;5004373;28;20709;-78
2022/12/04 02:26:25;;;;;;;14.10;7.88;;;;;;;1.58;100.00;102287.09;5004606;28;20125;-77
2022/12/04 02:28:56;;;;;;;16.92;8.15;;;;;;;0.56;100.00;102113.94;5003676;28;20076;-76
2022/12/04 02:31:30;;;;;;;12.38;7.70;;;;;;;0.36;100.00;102135.84;5001563;28;20112;-76
2022/12/04 02:34:09;;;;;;;22.02;8.05;;;;;;;1.50;100.00;102283.06;5001860;28;20050;-75
2022/12/04 02:36:51;;;;;;;14.15;7.90;;;;;;;1.40;100.00;102285.03;4978983;28;20104;-77
2022/12/04 02:39:41;;;;;;;10.93;6.57;;;;;;;1.40;100.00;102245.34;5003967;28;20054;-76
2022/12/04 02:42:21;;;;;;;11.93;6.35;;;;;;;1.64;100.00;102295.28;5000283;28;20076;-77
2022/12/04 02:45:00;;;;;;;12.80;6.65;;;;;;;0.67;100.00;102174.97;4999426;28;20058;-78
2022/12/04 02:47:26;;;;;;;12.13;7.18;;;;;;;1.43;100.00;102263.69;5001824;28;20647;-76
2022/12/04 02:49:58;;;;;;;11.25;5.57;;;;;;;1.56;100.00;102255.94;5002711;28;20124;-75
2022/12/04 02:52:49;;;;;;;11.02;6.95;;;;;;;1.57;100.00;102283.63;4998441;28;20050;-75
2022/12/04 02:55:38;;;;;;;13.45;8.23;;;;;;;1.25;100.00;102206.47;4984312;28;20127;-77
2022/12/04 02:58:20;;;;;;;15.55;7.60;;;;;;;1.51;100.00;102231.47;5004370;28;20050;-77
2022/12/04 03:00:47;;;;;;;12.20;6.38;;;;;;;1.16;100.00;102180.00;4996363;28;20054;-77
2022/12/04 03:03:39;;;;;;;11.23;7.10;;;;;;;1.62;100.00;102276.16;5002780;28;20054;-78
2022/12/04 03:06:09;;;;;;;10.15;5.68;;;;;;;1.39;100.00;102225.47;5000835;28;20153;-75
2022/12/04 03:08:46;;;;;;;11.60;7.05;;;;;;;0.96;100.00;102147.63;5005219;28;20048;-78
2022/12/04 03:11:12;;;;;;;13.73;6.80;;;;;;;0.35;100.00;102131.44;4991968;28;20053;-75
2022/12/04 03:13:47;;;;;;;12.63;7.60;;;;;;;1.03;100.00;102210.19;5004152;28;20513;-74
2022/12/04 03:16:19;;;;;;;11.48;6.50;;;;;;;1.23;100.00;102246.81;5000139;28;20085;-75
2022/12/04 03:19:12;;;;;;;12.18;7.38;;;;;;;1.13;100.00;102201.38;4999937;28;20054;-75
2022/12/04 03:21:43;;;;;;;12.27;6.15;;;;;;;1.54;100.00;102257.50;4999982;28;20053;-77
2022/12/04 03:24:41;;;;;;;13.10;7.80;;;;;;;1.53;100.00;102294.53;4999994;28;20099;-77
2022/12/04 03:27:14;;;;;;;13.00;6.82;;;;;;;1.34;100.00;102282.06;4997292;28;20149;-77
2022/12/04 03:29:45;;;;;;;;;;;;;;;1.58;100.00;102284.50;5001702;28;20034;-77
2022/12/04 03:32:15;;;;;;;17.58;7.88;;;;;;;0.96;100.00;102150.22;4996430;28;19976;-76
2022/12/04 03:35:17;;;;;;;11.30;6.80;;;;;;;0.95;100.00;102200.13;5000797;28;20046;-78
2022/12/04 03:38:11;;;;;;;12.95;7.75;;;;;;;0.67;100.00;102115.56;5002766;28;20069;-78
2022/12/04 03:40:43;;;;;;;;;;;;;;;1.68;100.00;102281.72;5006480;28;20109;-73
2022/12/04 03:43:34;;;;;;;12.65;6.05;;;;;;;1.58;100.00;102280.22;4993140;28;19953;-76
2022/12/04 03:46:10;;;;;;;12.18;7.28;;;;;;;1.62;100.00;102251.19;4990746;28;20054;-76
2022/12/04 03:48:45;;;;;;;11.73;7.10;;;;;;;1.40;100.00;102224.66;5000952;28;20046;-76
2022/12/04 03:51:25;;;;;;;13.05;7.35;;;;;;;1.84;100.00;102297.47;4999420;28;20060;-76
2022/12/04 03:53:56;;;;;;;14.82;8.45;;;;;;;1.37;100.00;102202.09;4996918;28;20042;-76
2022/12/04 03:56:28;;;;;;;13.15;6.70;;;;;;;1.79;100.00;102293.69;4998676;28;20046;-74
2022/12/04 03:59:05;;;;;;;13.60;7.15;;;;;;;1.10;100.00;102140.78;4998613;28;20499;-75
2022/12/04 04:01:37;;;;;;;13.63;7.25;;;;;;;1.29;100.00;102168.75;5033050;28;20398;-75
2022/12/04 04:04:06;;;;;;;13.23;7.30;;;;;;;1.09;100.00;102139.91;5001170;28;20058;-76
2022/12/04 04:06:38;;;;;;;12.02;6.90;;;;;;;0.81;100.00;102168.19;5001520;28;20054;-76
2022/12/04 04:09:09;;;;;;;12.35;7.40;;;;;;;1.35;100.00;102257.09;5003203;28;20159;-76
2022/12/04 04:11:48;;;;;;;11.25;7.50;;;;;;;0.95;100.00;102172.59;5002390;28;20399;-76
2022/12/04 04:25:44;;;;;;;11.18;6.65;;;;;;;0.98;100.00;102152.13;5004650;28;20536;-76
2022/12/04 04:28:38;;;;;;;10.32;6.22;;;;;;;1.81;100.00;102281.75;5004616;28;20064;-78
2022/12/04 04:31:39;;;;;;;13.45;7.25;;;;;;;1.81;100.00;102292.09;5003000;28;20062;-76
2022/12/04 04:34:31;;;;;;;11.90;6.85;;;;;;;1.81;100.00;102280.84;5002399;28;20058;-77
2022/12/04 04:36:59;;;;;;;13.63;7.30;;;;;;;1.89;100.00;102290.88;5005710;28;20073;-77
2022/12/04 04:39:43;;;;;;;12.55;8.68;;;;;;;1.94;100.00;102283.41;5003953;28;20057;-77
2022/12/04 04:42:30;;;;;;;12.73;7.85;;;;;;;1.98;100.00;102293.19;5000911;28;20081;-77
2022/12/04 04:45:15;;;;;;;12.82;7.00;;;;;;;1.32;100.00;102187.06;5001688;28;20053;-76
2022/12/04 04:48:07;;;;;;;9.82;6.55;;;;;;;1.54;100.00;102278.22;5001553;28;20112;-75
2022/12/04 04:50:34;;;;;;;10.75;6.90;;;;;;;1.70;100.00;102303.41;4997273;28;20041;-75
2022/12/04 04:53:07;;;;;;;10.73;5.72;;;;;;;1.26;100.00;102180.72;5004741;28;20037;-76
2022/12/04 04:55:35;;;;;;;11.82;6.97;;;;;;;0.94;100.00;102119.13;5002032;28;20062;-77
2022/12/04 04:58:16;;;;;;;14.65;7.80;;;;;;;0.92;100.00;102140.47;5000604;28;20061;-77
2022/12/04 05:00:53;;;;;;;13.68;7.65;;;;;;;1.91;100.00;102288.41;4999086;28;20042;-76
2022/12/04 05:03:18;;;;;;;11.70;7.35;;;;;;;1.09;100.00;102146.78;5001970;28;20065;-77
2022/12/04 05:05:44;;;;;;;12.30;6.95;;;;;;;1.17;100.00;102153.31;4998972;28;20084;-77
2022/12/04 05:08:10;;;;;;;31.17;8.10;;;;;;;2.04;100.00;102293.59;5000379;28;20188;-78
2022/12/04 05:10:35;;;;;;;12.80;8.35;;;;;;;1.66;100.00;102262.59;5004416;28;20050;-77
2022/12/04 05:13:01;;;;;;;15.43;8.57;;;;;;;1.24;100.00;102181.38;5000863;28;20046;-78
2022/12/04 05:15:26;;;;;;;15.23;7.72;;;;;;;1.59;100.00;102243.22;4998692;28;20043;-77
2022/12/04 05:17:51;;;;;;;15.00;9.43;;;;;;;1.67;100.00;102251.47;4997680;28;20062;-79
2022/12/04 05:20:17;;;;;;;12.57;8.35;;;;;;;1.61;100.00;102226.06;4998369;28;20041;-78
2022/12/04 05:22:42;;;;;;;16.48;10.27;;;;;;;1.51;100.00;102239.22;5004176;28;20145;-78
2022/12/04 05:25:09;;;;;;;14.82;8.95;;;;;;;1.10;100.00;102143.38;5002292;28;20073;-77
2022/12/04 05:27:34;;;;;;;13.80;8.20;;;;;;;1.71;100.00;102269.00;5004242;28;20049;-76
2022/12/04 05:30:00;;;;;;;10.63;8.18;;;;;;;1.74;100.00;102251.09;5002281;28;20779;-77
2022/12/04 05:32:28;;;;;;;15.00;7.68;;;;;;;1.90;100.00;102264.22;5008017;28;20372;-77
2022/12/04 05:34:54;;;;;;;15.15;7.95;;;;;;;1.63;100.00;102284.00;5005395;28;20084;-75
2022/12/04 05:37:20;;;;;;;14.60;9.27;;;;;;;1.11;100.00;102147.78;5005543;28;20053;-76
2022/12/04 05:39:46;;;;;;;14.05;7.75;;;;;;;1.55;100.00;102298.13;5004898;28;20054;-76
2022/12/04 05:42:12;;;;;;;12.52;8.10;;;;;;;1.50;100.00;102283.06;5005397;28;20504;-75
2022/12/04 05:44:37;;;;;;;17.50;8.73;;;;;;;1.47;100.00;102271.75;5002744;28;20068;-75
2022/12/04 05:47:03;;;;;;;13.90;9.57;;;;;;;1.53;100.00;102301.41;5003267;28;20581;-76
2022/12/04 05:49:29;;;;;;;18.73;10.27;;;;;;;0.68;100.00;102156.13;5006336;28;20570;-79
2022/12/04 05:51:55;;;;;;;18.98;10.10;;;;;;;0.83;100.00;102213.09;5006671;28;20056;-75
2022/12/04 05:54:20;;;;;;;12.27;8.02;;;;;;;1.13;100.00;102302.19;5005180;28;20058;-77
2022/12/04 05:56:46;;;;;;;17.73;8.38;;;;;;;0.84;100.00;102227.81;5006200;28;20053;-74
2022/12/04 05:59:12;;;;;;;14.13;9.15;;;;;;;0.75;100.00;102167.75;5005844;28;20409;-77
2022/12/04 06:01:39;;;;;;;17.98;9.50;;;;;;;1.27;100.00;102274.69;5002949;28;20038;-78
2022/12/04 06:04:04;;;;;;;20.08;11.57;;;;;;;0.64;100.00;102148.94;5006224;28;20084;-76
2022/12/04 06:06:30;;;;;;;14.15;8.30;;;;;;;1.41;100.00;102279.09;4990209;28;20062;-77
2022/12/04 06:08:57;;;;;;;15.98;9.18;;;;;;;1.90;100.00;102321.16;4996901;28;20136;-77
2022/12/04 06:11:25;;;;;;;20.30;10.77;;;;;;;1.16;100.00;102190.31;5004898;28;20045;-76
2022/12/04 06:13:51;;;;;;;18.23;10.05;;;;;;;1.35;100.00;102244.16;5003680;28;20059;-77
2022/12/04 06:16:18;;;;;;;17.25;11.07;;;;;;;0.96;100.00;102192.47;4998605;28;20058;-77
2022/12/04 06:18:48;;;;;;;19.13;10.35;;;;;;;0.96;100.00;102189.91;5003798;28;20049;-77
2022/12/04 06:21:14;;;;;;;14.95;8.75;;;;;;;1.30;100.00;102224.88;5002808;28;20405;-77
2022/12/04 06:23:39;;;;;;;19.40;11.18;;;;;;;1.59;100.00;102348.38;5000993;28;20044;-77
2022/12/04 06:26:07;;;;;;;13.18;8.07;;;;;;;1.22;100.00;102222.66;5002694;28;20482;-77
2022/12/04 06:28:33;;;;;;;16.15;9.02;;;;;;;1.94;100.00;102339.47;5000615;28;20078;-77
2022/12/04 06:31:03;;;;;;;17.73;9.35;;;;;;;1.50;100.00;102347.75;5001230;28;20565;-76
2022/12/04 06:33:29;;;;;;;19.58;9.93;;;;;;;1.54;100.00;102348.06;5003157;28;20149;-77
2022/12/04 06:36:17;;;;;;;16.40;9.35;;;;;;;1.83;100.00;102355.22;4998251;28;20141;-76
2022/12/04 06:38:43;;;;;;;16.00;8.60;;;;;;;1.34;100.00;102348.41;4999959;28;20474;-77
2022/12/04 06:41:11;;;;;;;16.98;9.40;;;;;;;0.91;100.00;102217.09;5000733;28;20034;-75
2022/12/04 06:43:37;;;;;;;24.20;12.32;;;;;;;0.45;100.00;102207.88;5005774;28;20050;-75
2022/12/04 06:46:06;;;;;;;18.42;10.07;;;;;;;1.33;100.00;102369.88;4997914;28;20095;-76
2022/12/04 06:48:32;;;;;;;18.83;11.13;;;;;;;0.44;100.00;102204.38;4999276;28;20131;-75
2022/12/04 06:51:05;;;;;;;16.00;9.38;;;;;;;1.38;100.00;102355.56;4999908;28;20045;-80
2022/12/04 06:53:31;;;;;;;19.25;11.45;;;;;;;0.55;100.00;102218.06;5000451;28;20042;-77
2022/12/04 06:55:58;;;;;;;20.48;12.48;;;;;;;1.67;100.00;102378.25;5001877;28;20082;-75
2022/12/04 06:58:24;;;;;;;18.15;12.05;;;;;;;1.75;100.00;102355.47;5016288;28;20054;-77
2022/12/04 07:00:50;;;;;;;19.15;8.88;;;;;;;1.47;100.00;102374.31;4993306;28;20092;-75
2022/12/04 07:03:16;;;;;;;21.75;11.52;;;;;;;0.96;100.00;102223.50;4992722;28;20061;-74
2022/12/04 07:05:41;;;;;;;13.95;8.70;;;;;;;0.66;100.00;102245.53;4989002;28;20045;-77
2022/12/04 07:08:07;;;;;;;14.23;8.95;;;;;;;1.25;100.00;102327.97;4991459;28;20148;-80
2022/12/04 07:10:35;;;;;;;16.95;8.85;;;;;;;1.74;100.00;102370.13;5006987;28;20061;-77
2022/12/04 07:13:01;;;;;;;16.45;10.73;;;;;;;0.71;100.00;102226.06;5001463;28;20141;-78
2022/12/04 07:15:26;;;;;;;15.23;8.70;;;;;;;1.55;100.00;102349.88;4997976;28;20133;-78
2022/12/04 07:17:52;;;;;;;18.20;9.55;;;;;;;1.76;100.00;102360.78;4997244;28;20828;-78
2022/12/04 07:20:17;;;;;;;19.20;8.80;;;;;;;1.62;100.00;102352.06;5004044;28;20987;-76
2022/12/04 07:22:43;;;;;;;14.02;8.52;;;;;;;0.67;100.00;102224.06;4996993;28;20061;-79
2022/12/04 07:25:08;;;;;;;15.20;9.82;;;;;;;0.76;100.00;102240.19;5000837;28;20518;-76
2022/12/04 07:27:34;;;;;;;17.17;9.80;;;;;;;1.54;100.00;102358.41;4999255;28;20046;-76
2022/12/04 07:30:00;;;;;;;14.68;10.20;;;;;;;1.31;100.00;102340.41;4992321;28;20685;-76
2022/12/04 07:32:25;;;;;;;14.95;8.70;;;;;;;1.68;100.00;102380.94;4984661;28;20042;-77
2022/12/04 07:34:51;;;;;;;18.65;9.23;;;;;;;0.68;100.00;102236.22;4995765;28;20173;-77
2022/12/04 07:37:16;;;;;;;19.55;11.52;;;;;;;1.35;100.00;102363.13;4993358;28;20042;-76
2022/12/04 07:39:42;;;;;;;17.52;10.77;;;;;;;1.57;100.00;102366.41;4997771;28;20046;-76
2022/12/04 07:42:07;;;;;;;13.38;9.00;;;;;;;1.76;100.00;102363.38;5000037;28;20100;-77
2022/12/04 07:44:32;;;;;;;15.98;9.68;;;;;;;1.65;100.00;102370.38;5005294;28;20501;-78
2022/12/04 07:46:58;;;;;;;19.45;10.75;;;;;;;2.00;100.00;102387.38;5004608;28;21206;-78
2022/12/04 07:49:23;;;;;;;15.93;8.88;;;;;;;1.76;100.00;102340.06;5005419;28;20062;-75
2022/12/04 07:51:49;;;;;;;14.77;9.45;;;;;;;0.93;100.00;102233.59;5000741;28;20057;-77
2022/12/04 07:54:14;;;;;;;20.27;9.48;;;;;;;1.72;100.00;102368.22;5006186;28;20048;-77
2022/12/04 07:56:40;;;;;;;24.02;11.43;;;;;;;1.76;100.00;102401.28;5006960;28;20457;-77
2022/12/04 07:59:05;;;;;;;14.38;9.68;;;;;;;2.06;100.00;102389.47;4997153;28;20124;-77
2022/12/04 08:01:31;;;;;;;13.57;8.30;;;;;;;1.51;100.00;102277.13;5002132;28;20050;-78
2022/12/04 08:03:58;;;;;;;16.50;9.88;;;;;;;1.49;100.00;102287.34;5004848;28;20065;-76
2022/12/04 08:06:26;;;;;;;17.80;11.77;;;;;;;1.27;100.00;102247.13;4994998;28;20080;-76
2022/12/04 08:08:56;;;;;;;21.83;10.60;;;;;;;1.70;100.00;102331.88;5007648;28;20058;-77
2022/12/04 08:11:23;;;;;;;14.85;9.27;;;;;;;2.18;100.00;102369.59;5010112;28;20065;-77
2022/12/04 08:13:57;;;;;;;19.08;12.07;;;;;;;2.29;100.00;102410.06;5000749;28;20045;-76
2022/12/04 08:16:24;;;;;;;18.67;11.65;;;;;;;1.93;100.00;102324.75;5004312;28;20068;-78
2022/12/04 08:18:50;;;;;;;17.08;10.98;;;;;;;1.27;100.00;102280.75;5003325;28;20049;-79
2022/12/04 08:21:19;;;;;;;18.48;10.02;;;;;;;1.02;100.00;102251.44;5000509;28;20137;-78
2022/12/04 08:23:46;;;;;;;17.10;10.02;;;;;;;2.15;100.00;102382.31;4994998;28;20046;-78
2022/12/04 08:26:12;;;;;;;19.17;10.43;;;;;;;1.29;100.00;102275.69;4998239;28;20398;-80
2022/12/04 08:28:39;;;;;;;18.88;12.43;;;;;;;1.66;100.00;102376.44;5002284;28;20136;-77
2022/12/04 08:31:13;;;;;;;17.13;9.98;;;;;;;1.66;100.00;102361.84;5007943;28;20060;-78
2022/12/04 08:33:40;;;;;;;17.35;10.48;;;;;;;1.80;100.00;102400.69;4999056;28;20206;-76
2022/12/04 08:36:08;;;;;;;16.02;8.70;;;;;;;1.45;100.00;102344.84;5007236;28;20045;-78
2022/12/04 08:38:33;;;;;;;19.38;10.73;;;;;;;0.65;100.00;102209.25;5006566;28;20034;-77
2022/12/04 08:41:00;;;;;;;14.25;8.65;;;;;;;1.25;100.00;102294.38;5006005;28;20090;-77
2022/12/04 08:43:26;;;;;;;21.83;10.10;;;;;;;1.53;100.00;102346.28;5001337;28;20054;-79
2022/12/04 08:45:57;;;;;;;15.82;10.32;;;;;;;1.51;100.00;102339.22;4998221;28;20057;-78
2022/12/04 08:48:22;;;;;;;20.98;10.52;;;;;;;1.94;100.00;102380.91;5002505;28;20080;-76
2022/12/04 08:50:48;;;;;;;17.45;10.27;;;;;;;2.13;100.00;102390.78;5001026;28;20053;-79
2022/12/04 08:53:13;;;;;;;18.88;12.23;;;;;;;2.07;100.00;102362.81;4992127;28;20140;-77
2022/12/04 08:55:39;;;;;;;15.88;10.45;;;;;;;1.17;100.00;102265.41;4988228;28;20064;-77
2022/12/04 08:58:04;;;;;;;20.00;11.35;;;;;;;1.38;100.00;102267.63;4996804;28;20042;-77
2022/12/04 09:00:30;;;;;;;19.08;10.30;;;;;;;1.63;100.00;102353.84;4998952;28;20042;-77
2022/12/04 09:02:56;;;;;;;21.98;11.25;;;;;;;1.86;100.00;102372.63;4995345;28;20041;-79
2022/12/04 09:05:22;;;;;;;18.60;9.27;;;;;;;1.62;100.00;102341.72;4990978;28;20398;-78
2022/12/04 09:07:47;;;;;;;15.40;9.73;;;;;;;1.14;100.00;102234.16;5000186;28;20060;-78
2022/12/04 09:10:13;;;;;;;16.40;10.55;;;;;;;2.06;100.00;102338.63;4996335;28;20046;-76
2022/12/04 09:12:38;;;;;;;14.55;8.23;;;;;;;1.60;100.00;102244.09;4994870;28;20042;-78
2022/12/04 09:15:05;;;;;;;12.80;9.45;;;;;;;2.21;100.00;102374.06;4992556;28;20115;-76
2022/12/04 09:17:31;;;;;;;18.05;9.93;;;;;;;2.17;100.00;102330.63;4994728;28;20441;-77
2022/12/04 09:19:56;;;;;;;19.30;11.43;;;;;;;1.11;100.00;102179.69;4994184;28;20037;-76
2022/12/04 09:22:22;;;;;;;18.02;11.38;;;;;;;1.70;100.00;102326.72;4995737;28;20601;-82
2022/12/04 09:24:47;;;;;;;21.05;13.50;;;;;;;1.12;100.00;102211.59;4996981;28;20042;-76
2022/12/04 09:27:12;;;;;;;16.25;10.55;;;;;;;1.89;100.00;102340.06;4993188;28;20054;-80
2022/12/04 09:29:38;;;;;;;18.23;10.15;;;;;;;1.30;100.00;102220.59;4995170;28;20034;-81
2022/12/04 09:32:03;;;;;;;16.33;11.98;;;;;;;1.58;100.00;102274.16;5000708;28;20458;-77
2022/12/04 09:34:29;;;;;;;15.30;10.35;;;;;;;1.34;100.00;102188.09;5004589;28;20045;-78
2022/12/04 09:36:55;;;;;;;18.23;10.63;;;;;;;2.12;100.00;102322.56;4997038;28;20069;-77
2022/12/04 09:39:20;;;;;;;16.83;10.00;;;;;;;1.80;100.00;102266.09;5000804;28;20494;-77
2022/12/04 09:42:04;;;;;;;20.88;11.02;;;;;;;2.16;100.00;102342.69;4992267;28;20169;-76
2022/12/04 09:44:35;;;;;;;;;;;;;;;2.45;100.00;102333.31;4996748;28;20065;-77
2022/12/04 09:47:04;;;;;;;26.30;10.63;;;;;;;1.84;100.00;102278.47;4998035;28;19928;-76
2022/12/04 09:49:41;;;;;;;17.80;11.25;;;;;;;1.81;100.00;102301.56;4992093;28;20052;-77
2022/12/04 09:52:31;;;;;;;17.38;10.00;;;;;;;1.88;100.00;102321.88;4997015;28;20050;-77
2022/12/04 09:54:59;;;;;;;21.05;11.77;;;;;;;2.14;100.00;102331.34;4992362;28;20526;-76
2022/12/04 09:57:31;;;;;;;15.30;8.88;;;;;;;1.50;100.00;102177.03;4996375;28;20126;-76
2022/12/04 09:59:58;;;;;;;17.20;10.23;;;;;;;1.30;100.00;102180.91;4998459;28;20141;-77
2022/12/04 10:02:47;;;;;;;14.27;9.20;;;;;;;2.38;100.00;102323.34;5002149;28;20125;-75
2022/12/04 10:05:45;;;;;;;17.13;9.05;;;;;;;1.95;100.00;102217.94;4998780;28;20145;-75
2022/12/04 10:08:25;;;;;;;21.88;11.30;;;;;;;2.08;100.00;102302.44;4948503;28;20090;-78
2022/12/04 10:10:58;;;;;;;27.45;15.90;;;;;;;2.11;100.00;102324.28;4981414;28;20062;-75
2022/12/04 10:13:51;;;;;;;18.00;13.68;;;;;;;1.22;100.00;102167.47;5002883;28;20050;-77
2022/12/04 10:16:31;;;;;;;17.67;10.43;;;;;;;1.33;100.00;102175.94;5000891;28;20092;-77
2022/12/04 10:19:43;;;;;;;22.63;13.40;;;;;;;2.33;100.00;102300.63;5005424;28;20088;-77
2022/12/04 10:22:15;;;;;;;16.10;10.45;;;;;;;2.18;100.00;102291.91;4927553;29;20111;-80
2022/12/04 10:24:46;;;;;;;14.65;9.77;;;;;;;1.75;100.00;102250.28;4998193;28;20050;-76
2022/12/04 10:27:40;;;;;;;18.00;10.57;;;;;;;2.04;100.00;102303.06;4990837;28;20066;-76
2022/12/04 10:30:12;;;;;;;16.95;11.48;;;;;;;1.76;100.00;102262.44;5002834;28;20105;-79
2022/12/04 10:32:38;;;;;;;18.70;10.10;;;;;;;1.93;100.00;102293.69;4995885;28;20045;-76
2022/12/04 10:35:22;;;;;;;19.33;10.57;;;;;;;2.06;100.00;102301.44;4993840;28;20030;-76
2022/12/04 10:37:56;;;;;;;22.30;12.45;;;;;;;1.84;100.00;102256.03;5000134;28;20042;-83
2022/12/04 10:40:40;;;;;;;18.90;11.80;;;;;;;1.83;100.00;102274.97;5002650;28;20046;-75
2022/12/04 10:43:27;;;;;;;18.52;9.43;;;;;;;1.83;100.00;102295.69;4995441;28;20145;-73
2022/12/04 10:45:52;;;;;;;22.45;13.35;;;;;;;1.63;100.00;102259.81;4985869;28;20084;-76
2022/12/04 10:48:24;;;;;;;14.93;8.93;;;;;;;1.80;100.00;102279.97;4999440;28;20034;-80
2022/12/04 10:50:50;;;;;;;16.33;9.75;;;;;;;1.13;100.00;102139.31;5004181;28;20857;-75
2022/12/04 10:53:20;;;;;;;18.08;11.23;;;;;;;1.66;100.00;102240.25;5005447;28;20108;-77
2022/12/04 10:55:45;;;;;;;17.80;9.43;;;;;;;1.29;100.00;102174.84;5005178;28;20244;-77
2022/12/04 10:58:16;;;;;;;17.27;9.77;;;;;;;1.72;100.00;102252.66;5004551;28;20046;-79
2022/12/04 11:00:46;;;;;;;18.05;11.00;;;;;;;1.81;100.00;102253.28;5004351;28;20046;-77
2022/12/04 11:03:24;;;;;;;17.38;9.32;;;;;;;1.05;100.00;102132.72;4998315;28;20569;-76
2022/12/04 11:06:04;;;;;;;16.70;10.40;;;;;;;1.84;100.00;102279.34;4998770;28;20050;-76
2022/12/04 11:08:38;;;;;;;13.75;8.93;;;;;;;1.71;100.00;102248.31;4997370;28;20046;-79
2022/12/04 11:11:13;;;;;;;20.67;10.43;;;;;;;1.83;100.00;102268.91;5002089;28;20157;-74
2022/12/04 11:13:39;;;;;;;16.52;10.68;;;;;;;2.00;100.00;102291.59;4990119;28;20050;-76
2022/12/04 11:16:06;;;;;;;14.18;10.18;;;;;;;1.97;100.00;102275.00;5002517;28;20760;-80
2022/12/04 11:18:44;;;;;;;15.27;10.30;;;;;;;1.27;100.00;102132.47;5006591;28;20049;-79
2022/12/04 11:21:22;;;;;;;12.43;7.80;;;;;;;1.36;100.00;102152.84;5002734;28;20759;-83
2022/12/04 11:23:49;;;;;;;16.45;9.23;;;;;;;1.26;100.00;102108.31;5006852;28;20057;-77
2022/12/04 11:26:17;;;;;;;16.30;11.60;;;;;;;1.26;100.00;102097.06;5004601;28;20091;-81
2022/12/04 11:28:50;;;;;;;22.02;12.52;;;;;;;1.33;100.00;102090.59;5001581;28;20053;-75
2022/12/04 11:31:18;;;;;;;;;;;;;;;2.22;100.00;102243.78;5011108;28;20042;-77
2022/12/04 11:33:52;;;;;;;15.55;11.15;;;;;;;2.22;100.00;102241.19;5008851;28;19983;-79
2022/12/04 11:36:21;;;;;;;26.85;13.75;;;;;;;2.23;100.00;102246.47;5005208;28;20098;-78
2022/12/04 11:38:47;;;;;;;18.75;11.43;;;;;;;2.30;100.00;102238.28;5003076;28;20054;-78
2022/12/04 11:41:28;;;;;;;17.35;12.55;;;;;;;1.61;100.00;102127.75;5005174;28;20084;-77